createdAt,value
2018-05-18T00:00:08.371Z,482
2018-05-18T00:01:15.571Z,484
2018-05-18T00:02:22.776Z,486
2018-05-18T00:03:29.976Z,488
2018-05-18T00:04:37.189Z,489
2018-05-18T00:05:44.390Z,490
2018-05-18T00:06:51.592Z,491
2018-05-18T00:07:58.811Z,493
2018-05-18T00:09:06.015Z,493
2018-05-18T00:10:13.216Z,494
2018-05-18T00:11:20.414Z,496
2018-05-18T00:12:27.646Z,497
2018-05-18T00:13:34.552Z,498
2018-05-18T00:14:41.781Z,499
2018-05-18T00:15:48.706Z,499
2018-05-18T00:16:55.916Z,499
2018-05-18T00:18:03.119Z,499
2018-05-18T00:19:10.328Z,500
2018-05-18T00:20:17.531Z,500
2018-05-18T00:21:24.732Z,501
2018-05-18T00:22:31.934Z,500
2018-05-18T00:23:39.134Z,501
2018-05-18T00:24:46.067Z,501
2018-05-18T00:25:53.268Z,502
2018-05-18T00:27:00.471Z,503
2018-05-18T00:28:07.671Z,504
2018-05-18T00:29:14.878Z,504
2018-05-18T00:30:21.805Z,504
2018-05-18T00:31:29.014Z,504
2018-05-18T00:32:36.218Z,503
2018-05-18T00:33:43.418Z,502
2018-05-18T00:34:50.618Z,503
2018-05-18T00:35:57.817Z,502
2018-05-18T00:37:05.023Z,502
2018-05-18T00:38:11.946Z,503
2018-05-18T00:39:19.153Z,502
2018-05-18T00:40:26.355Z,501
2018-05-18T00:41:33.583Z,499
2018-05-18T00:42:40.772Z,498
2018-05-18T00:43:47.982Z,498
2018-05-18T00:44:55.180Z,498
2018-05-18T00:46:02.379Z,498
2018-05-18T00:47:09.588Z,498
2018-05-18T00:48:16.798Z,497
2018-05-18T00:49:23.734Z,497
2018-05-18T00:50:30.964Z,496
2018-05-18T00:51:38.193Z,496
2018-05-18T00:52:45.135Z,494
2018-05-18T00:53:52.340Z,495
2018-05-18T00:54:59.542Z,494
2018-05-18T00:56:06.746Z,493
2018-05-18T00:57:13.946Z,492
2018-05-18T00:58:20.876Z,492
2018-05-18T00:59:28.080Z,491
2018-05-18T01:00:35.320Z,491
2018-05-18T01:01:42.527Z,490
2018-05-18T01:02:49.727Z,489
2018-05-18T01:03:56.932Z,490
2018-05-18T01:05:04.128Z,488
2018-05-18T01:06:11.332Z,488
2018-05-18T01:07:17.979Z,488
2018-05-18T22:00:06.944Z,448
2018-05-18T22:01:14.176Z,438
2018-05-18T22:02:21.383Z,436
2018-05-18T22:03:28.588Z,434
2018-05-18T22:04:35.792Z,433
2018-05-18T22:05:43.001Z,431
2018-05-18T22:06:50.214Z,431
2018-05-18T22:07:57.414Z,431
2018-05-18T22:09:04.623Z,430
2018-05-18T22:10:11.529Z,430
2018-05-18T22:11:18.740Z,430
2018-05-18T22:12:25.939Z,429
2018-05-18T22:13:33.141Z,429
2018-05-18T22:14:40.069Z,427
2018-05-18T22:15:47.021Z,427
2018-05-18T22:16:54.232Z,427
2018-05-18T22:18:01.167Z,426
2018-05-18T22:19:08.372Z,427
2018-05-18T22:20:15.303Z,426
2018-05-18T22:21:22.513Z,426
2018-05-18T22:22:29.720Z,425
2018-05-18T22:23:36.986Z,425
2018-05-18T22:24:44.202Z,424
2018-05-18T22:25:51.410Z,424
2018-05-18T22:26:58.079Z,424
2018-05-18T22:28:05.286Z,423
2018-05-18T22:29:12.228Z,423
2018-05-18T22:30:19.434Z,423
2018-05-18T22:31:26.660Z,424
2018-05-18T22:32:33.869Z,424
2018-05-18T22:33:41.085Z,423
2018-05-18T22:34:48.293Z,424
2018-05-18T22:35:55.517Z,423
2018-05-18T22:37:02.731Z,423
2018-05-18T22:38:09.952Z,423
2018-05-18T22:39:17.161Z,423
2018-05-18T22:40:24.085Z,422
2018-05-18T22:41:31.295Z,422
2018-05-18T22:42:38.517Z,422
2018-05-18T22:43:45.720Z,423
2018-05-18T22:44:52.982Z,423
2018-05-18T22:46:00.222Z,423
2018-05-18T22:47:07.427Z,422
2018-05-18T22:48:14.358Z,422
2018-05-18T22:49:21.560Z,422
2018-05-18T22:50:28.765Z,422
2018-05-18T22:51:35.984Z,422
2018-05-18T22:52:43.191Z,422
2018-05-18T22:53:50.127Z,422
2018-05-18T22:54:57.338Z,422
2018-05-18T22:56:04.261Z,422
2018-05-18T22:57:11.469Z,422
2018-05-18T22:58:18.685Z,421
2018-05-18T22:59:25.910Z,422
2018-05-18T23:00:32.555Z,422
2018-05-18T23:01:39.759Z,421
2018-05-18T23:02:46.968Z,421
2018-05-18T23:03:54.173Z,422
2018-05-18T23:05:01.377Z,422
2018-05-18T23:06:08.580Z,421
2018-05-18T23:07:15.517Z,421
2018-05-18T23:08:22.447Z,421
2018-05-18T23:09:29.383Z,421
2018-05-18T23:10:36.591Z,421
2018-05-18T23:11:43.793Z,421
2018-05-18T23:12:51.018Z,421
2018-05-18T23:13:58.223Z,421
2018-05-18T23:15:05.158Z,420
2018-05-18T23:16:12.363Z,420
2018-05-18T23:17:19.568Z,421
2018-05-18T23:18:26.779Z,420
2018-05-18T23:19:33.987Z,420
2018-05-18T23:20:40.917Z,421
2018-05-18T23:21:47.850Z,421
2018-05-18T23:22:55.067Z,421
2018-05-18T23:24:02.267Z,421
2018-05-18T23:25:09.474Z,421
2018-05-18T23:26:16.406Z,421
2018-05-18T23:27:23.609Z,421
2018-05-18T23:28:30.862Z,421
2018-05-18T23:29:38.087Z,421
2018-05-18T23:30:45.282Z,421
2018-05-18T23:31:52.434Z,421
2018-05-18T23:32:59.807Z,421
2018-05-18T23:34:07.033Z,420
2018-05-18T23:35:14.224Z,420
2018-05-18T23:36:21.148Z,420
2018-05-18T23:37:28.358Z,421
2018-05-18T23:38:35.566Z,420
2018-05-18T23:39:42.489Z,421
2018-05-18T23:40:49.707Z,420
2018-05-18T23:41:56.918Z,420
2018-05-18T23:43:04.123Z,420
2018-05-18T23:44:11.332Z,420
2018-05-18T23:45:18.535Z,421
2018-05-18T23:46:25.739Z,420
2018-05-18T23:47:32.972Z,420
2018-05-18T23:48:40.179Z,420
2018-05-18T23:49:47.388Z,421
2018-05-18T23:50:54.328Z,420
2018-05-18T23:52:01.534Z,421
2018-05-18T23:53:08.749Z,421
2018-05-18T23:54:15.951Z,420
2018-05-18T23:55:23.158Z,421
2018-05-18T23:56:30.367Z,420
2018-05-18T23:57:37.022Z,420
2018-05-18T23:58:44.248Z,421
2018-05-18T23:59:50.897Z,421
